sensor_id;sensor_type;location;lat;lon;timestamp;P1;durP1;ratioP1;P2;durP2;ratioP2
53409;SDS011;66590;50.734;4.246;2023-03-02T00:00:04;22.92;;;16.58;;
53409;SDS011;66590;50.734;4.246;2023-03-02T00:02:32;23.85;;;16.48;;
53409;SDS011;66590;50.734;4.246;2023-03-02T00:04:59;22.77;;;16.70;;
53409;SDS011;66590;50.734;4.246;2023-03-02T00:07:28;23.65;;;16.40;;
53409;SDS011;66590;50.734;4.246;2023-03-02T00:09:58;28.75;;;17.20;;
53409;SDS011;66590;50.734;4.246;2023-03-02T00:12:27;24.98;;;17.55;;
53409;SDS011;66590;50.734;4.246;2023-03-02T00:14:56;80.07;;;41.95;;
53409;SDS011;66590;50.734;4.246;2023-03-02T00:17:23;132.85;;;65.82;;
53409;SDS011;66590;50.734;4.246;2023-03-02T00:19:50;106.07;;;55.40;;
53409;SDS011;66590;50.734;4.246;2023-03-02T00:22:17;55.22;;;30.73;;
53409;SDS011;66590;50.734;4.246;2023-03-02T00:24:44;36.80;;;24.15;;
53409;SDS011;66590;50.734;4.246;2023-03-02T00:27:12;28.40;;;18.25;;
53409;SDS011;66590;50.734;4.246;2023-03-02T00:29:41;24.70;;;16.85;;
53409;SDS011;66590;50.734;4.246;2023-03-02T00:32:08;23.13;;;16.10;;
53409;SDS011;66590;50.734;4.246;2023-03-02T00:34:40;24.92;;;16.58;;
53409;SDS011;66590;50.734;4.246;2023-03-02T00:37:07;25.38;;;16.45;;
53409;SDS011;66590;50.734;4.246;2023-03-02T00:39:34;25.85;;;16.75;;
53409;SDS011;66590;50.734;4.246;2023-03-02T00:42:05;23.58;;;14.95;;
53409;SDS011;66590;50.734;4.246;2023-03-02T00:44:51;22.83;;;15.40;;
53409;SDS011;66590;50.734;4.246;2023-03-02T00:47:20;21.23;;;15.13;;
53409;SDS011;66590;50.734;4.246;2023-03-02T00:49:47;22.95;;;15.50;;
53409;SDS011;66590;50.734;4.246;2023-03-02T00:52:15;20.88;;;14.30;;
53409;SDS011;66590;50.734;4.246;2023-03-02T00:54:42;21.25;;;14.95;;
53409;SDS011;66590;50.734;4.246;2023-03-02T00:57:09;24.42;;;14.10;;
53409;SDS011;66590;50.734;4.246;2023-03-02T00:59:36;20.60;;;13.82;;
53409;SDS011;66590;50.734;4.246;2023-03-02T01:02:06;25.88;;;14.90;;
53409;SDS011;66590;50.734;4.246;2023-03-02T01:04:34;22.35;;;14.93;;
53409;SDS011;66590;50.734;4.246;2023-03-02T01:07:28;21.88;;;14.43;;
53409;SDS011;66590;50.734;4.246;2023-03-02T01:12:22;20.67;;;14.07;;
53409;SDS011;66590;50.734;4.246;2023-03-02T01:14:54;19.80;;;13.93;;
53409;SDS011;66590;50.734;4.246;2023-03-02T01:17:23;21.80;;;13.95;;
53409;SDS011;66590;50.734;4.246;2023-03-02T01:19:51;22.08;;;14.15;;
53409;SDS011;66590;50.734;4.246;2023-03-02T01:22:18;20.52;;;13.35;;
53409;SDS011;66590;50.734;4.246;2023-03-02T01:24:46;22.27;;;13.95;;
53409;SDS011;66590;50.734;4.246;2023-03-02T01:27:13;19.85;;;14.02;;
53409;SDS011;66590;50.734;4.246;2023-03-02T01:29:40;19.35;;;13.75;;
53409;SDS011;66590;50.734;4.246;2023-03-02T01:32:07;22.45;;;14.20;;
53409;SDS011;66590;50.734;4.246;2023-03-02T01:34:36;19.63;;;14.30;;
53409;SDS011;66590;50.734;4.246;2023-03-02T01:37:03;23.65;;;14.90;;
53409;SDS011;66590;50.734;4.246;2023-03-02T01:39:30;21.98;;;13.93;;
53409;SDS011;66590;50.734;4.246;2023-03-02T01:41:57;19.20;;;13.95;;
53409;SDS011;66590;50.734;4.246;2023-03-02T01:44:38;20.70;;;14.43;;
53409;SDS011;66590;50.734;4.246;2023-03-02T01:47:15;21.83;;;14.55;;
53409;SDS011;66590;50.734;4.246;2023-03-02T01:49:48;20.52;;;13.75;;
53409;SDS011;66590;50.734;4.246;2023-03-02T01:52:18;21.65;;;14.07;;
53409;SDS011;66590;50.734;4.246;2023-03-02T01:54:46;23.13;;;15.80;;
53409;SDS011;66590;50.734;4.246;2023-03-02T01:57:15;24.15;;;14.90;;
53409;SDS011;66590;50.734;4.246;2023-03-02T01:59:48;20.98;;;13.90;;
53409;SDS011;66590;50.734;4.246;2023-03-02T02:02:19;20.60;;;14.75;;
53409;SDS011;66590;50.734;4.246;2023-03-02T02:04:48;21.25;;;14.52;;
53409;SDS011;66590;50.734;4.246;2023-03-02T02:07:21;19.60;;;13.30;;
53409;SDS011;66590;50.734;4.246;2023-03-02T02:09:49;22.58;;;14.20;;
53409;SDS011;66590;50.734;4.246;2023-03-02T02:12:18;21.80;;;14.40;;
53409;SDS011;66590;50.734;4.246;2023-03-02T02:14:47;21.38;;;14.20;;
53409;SDS011;66590;50.734;4.246;2023-03-02T02:17:15;21.08;;;14.13;;
53409;SDS011;66590;50.734;4.246;2023-03-02T02:19:53;20.83;;;14.02;;
53409;SDS011;66590;50.734;4.246;2023-03-02T02:22:29;22.90;;;13.93;;
53409;SDS011;66590;50.734;4.246;2023-03-02T02:25:04;19.50;;;14.00;;
53409;SDS011;66590;50.734;4.246;2023-03-02T02:27:38;14.05;;;10.30;;
53409;SDS011;66590;50.734;4.246;2023-03-02T02:30:06;19.60;;;13.75;;
53409;SDS011;66590;50.734;4.246;2023-03-02T02:32:36;19.95;;;13.98;;
53409;SDS011;66590;50.734;4.246;2023-03-02T02:35:08;20.30;;;14.18;;
53409;SDS011;66590;50.734;4.246;2023-03-02T02:37:43;19.60;;;13.65;;
53409;SDS011;66590;50.734;4.246;2023-03-02T02:40:14;20.38;;;13.98;;
53409;SDS011;66590;50.734;4.246;2023-03-02T02:42:48;21.92;;;14.13;;
53409;SDS011;66590;50.734;4.246;2023-03-02T02:45:18;21.30;;;14.35;;
53409;SDS011;66590;50.734;4.246;2023-03-02T02:47:47;18.75;;;13.32;;
53409;SDS011;66590;50.734;4.246;2023-03-02T02:50:16;20.00;;;13.65;;
53409;SDS011;66590;50.734;4.246;2023-03-02T02:52:45;21.55;;;14.02;;
53409;SDS011;66590;50.734;4.246;2023-03-02T02:55:19;19.55;;;13.45;;
53409;SDS011;66590;50.734;4.246;2023-03-02T02:57:49;20.08;;;13.95;;
53409;SDS011;66590;50.734;4.246;2023-03-02T03:00:19;17.65;;;12.93;;
53409;SDS011;66590;50.734;4.246;2023-03-02T03:02:50;21.17;;;13.35;;
53409;SDS011;66590;50.734;4.246;2023-03-02T03:07:50;21.77;;;13.70;;
53409;SDS011;66590;50.734;4.246;2023-03-02T03:10:17;18.75;;;12.80;;
53409;SDS011;66590;50.734;4.246;2023-03-02T03:12:50;21.33;;;13.25;;
53409;SDS011;66590;50.734;4.246;2023-03-02T03:15:17;18.27;;;13.32;;
53409;SDS011;66590;50.734;4.246;2023-03-02T03:17:52;19.38;;;12.80;;
53409;SDS011;66590;50.734;4.246;2023-03-02T03:20:22;17.60;;;13.32;;
53409;SDS011;66590;50.734;4.246;2023-03-02T03:22:51;22.75;;;14.18;;
53409;SDS011;66590;50.734;4.246;2023-03-02T03:25:21;21.17;;;13.77;;
53409;SDS011;66590;50.734;4.246;2023-03-02T03:27:52;18.77;;;13.65;;
53409;SDS011;66590;50.734;4.246;2023-03-02T03:30:19;20.13;;;13.40;;
53409;SDS011;66590;50.734;4.246;2023-03-02T03:32:47;20.30;;;13.15;;
53409;SDS011;66590;50.734;4.246;2023-03-02T03:35:14;18.73;;;13.30;;
53409;SDS011;66590;50.734;4.246;2023-03-02T03:37:41;20.67;;;13.38;;
53409;SDS011;66590;50.734;4.246;2023-03-02T03:40:09;20.30;;;13.02;;
53409;SDS011;66590;50.734;4.246;2023-03-02T03:42:36;19.80;;;13.77;;
53409;SDS011;66590;50.734;4.246;2023-03-02T03:45:06;21.10;;;13.23;;
53409;SDS011;66590;50.734;4.246;2023-03-02T03:47:33;19.25;;;12.98;;
53409;SDS011;66590;50.734;4.246;2023-03-02T03:50:07;19.63;;;13.38;;
53409;SDS011;66590;50.734;4.246;2023-03-02T03:52:34;21.92;;;13.57;;
53409;SDS011;66590;50.734;4.246;2023-03-02T03:55:02;19.85;;;13.30;;
53409;SDS011;66590;50.734;4.246;2023-03-02T03:57:29;20.00;;;13.80;;
53409;SDS011;66590;50.734;4.246;2023-03-02T03:59:56;19.63;;;14.20;;
53409;SDS011;66590;50.734;4.246;2023-03-02T04:02:25;19.70;;;13.63;;
53409;SDS011;66590;50.734;4.246;2023-03-02T04:04:52;20.83;;;13.52;;
53409;SDS011;66590;50.734;4.246;2023-03-02T04:07:20;21.17;;;13.30;;
53409;SDS011;66590;50.734;4.246;2023-03-02T04:09:52;20.45;;;13.85;;
53409;SDS011;66590;50.734;4.246;2023-03-02T04:12:23;19.80;;;13.23;;
53409;SDS011;66590;50.734;4.246;2023-03-02T04:14:50;22.17;;;13.68;;
53409;SDS011;66590;50.734;4.246;2023-03-02T04:17:17;21.65;;;14.10;;
53409;SDS011;66590;50.734;4.246;2023-03-02T04:19:46;20.40;;;13.38;;
53409;SDS011;66590;50.734;4.246;2023-03-02T04:22:13;19.48;;;13.13;;
53409;SDS011;66590;50.734;4.246;2023-03-02T04:24:42;20.30;;;13.68;;
53409;SDS011;66590;50.734;4.246;2023-03-02T04:27:09;18.13;;;13.60;;
53409;SDS011;66590;50.734;4.246;2023-03-02T04:29:36;20.10;;;14.10;;
53409;SDS011;66590;50.734;4.246;2023-03-02T04:32:04;20.20;;;13.95;;
53409;SDS011;66590;50.734;4.246;2023-03-02T04:34:31;20.40;;;13.10;;
53409;SDS011;66590;50.734;4.246;2023-03-02T04:37:00;18.65;;;13.52;;
53409;SDS011;66590;50.734;4.246;2023-03-02T04:39:27;19.63;;;13.07;;
53409;SDS011;66590;50.734;4.246;2023-03-02T04:41:55;18.00;;;13.30;;
53409;SDS011;66590;50.734;4.246;2023-03-02T04:44:22;21.63;;;13.38;;
53409;SDS011;66590;50.734;4.246;2023-03-02T04:46:49;25.80;;;14.07;;
53409;SDS011;66590;50.734;4.246;2023-03-02T04:49:17;18.23;;;12.70;;
53409;SDS011;66590;50.734;4.246;2023-03-02T04:51:45;17.30;;;13.07;;
53409;SDS011;66590;50.734;4.246;2023-03-02T04:54:16;20.08;;;13.75;;
53409;SDS011;66590;50.734;4.246;2023-03-02T04:56:47;20.63;;;13.35;;
53409;SDS011;66590;50.734;4.246;2023-03-02T04:59:14;18.80;;;13.13;;
53409;SDS011;66590;50.734;4.246;2023-03-02T05:01:42;18.85;;;12.95;;
53409;SDS011;66590;50.734;4.246;2023-03-02T05:04:09;21.10;;;13.13;;
53409;SDS011;66590;50.734;4.246;2023-03-02T05:06:43;13.23;;;9.95;;
53409;SDS011;66590;50.734;4.246;2023-03-02T05:09:11;17.30;;;12.88;;
53409;SDS011;66590;50.734;4.246;2023-03-02T05:11:40;17.77;;;12.90;;
53409;SDS011;66590;50.734;4.246;2023-03-02T05:14:08;17.83;;;12.70;;
53409;SDS011;66590;50.734;4.246;2023-03-02T05:16:37;19.45;;;13.27;;
53409;SDS011;66590;50.734;4.246;2023-03-02T05:19:07;18.25;;;12.98;;
53409;SDS011;66590;50.734;4.246;2023-03-02T05:21:35;19.73;;;12.57;;
53409;SDS011;66590;50.734;4.246;2023-03-02T05:24:03;18.65;;;13.85;;
53409;SDS011;66590;50.734;4.246;2023-03-02T05:26:30;18.77;;;13.07;;
53409;SDS011;66590;50.734;4.246;2023-03-02T05:28:59;19.83;;;12.27;;
53409;SDS011;66590;50.734;4.246;2023-03-02T05:31:28;16.98;;;13.50;;
53409;SDS011;66590;50.734;4.246;2023-03-02T05:33:58;18.00;;;11.68;;
53409;SDS011;66590;50.734;4.246;2023-03-02T05:36:25;17.45;;;12.85;;
53409;SDS011;66590;50.734;4.246;2023-03-02T05:38:52;17.13;;;12.68;;
53409;SDS011;66590;50.734;4.246;2023-03-02T05:41:19;18.95;;;12.55;;
53409;SDS011;66590;50.734;4.246;2023-03-02T05:43:46;19.70;;;12.65;;
53409;SDS011;66590;50.734;4.246;2023-03-02T05:46:15;19.63;;;12.40;;
53409;SDS011;66590;50.734;4.246;2023-03-02T05:48:43;17.15;;;12.45;;
53409;SDS011;66590;50.734;4.246;2023-03-02T05:51:10;20.23;;;13.13;;
53409;SDS011;66590;50.734;4.246;2023-03-02T05:53:37;17.00;;;12.82;;
53409;SDS011;66590;50.734;4.246;2023-03-02T05:56:07;16.95;;;12.57;;
53409;SDS011;66590;50.734;4.246;2023-03-02T05:58:35;18.25;;;13.48;;
53409;SDS011;66590;50.734;4.246;2023-03-02T06:01:08;20.10;;;13.07;;
53409;SDS011;66590;50.734;4.246;2023-03-02T06:03:42;18.83;;;13.32;;
53409;SDS011;66590;50.734;4.246;2023-03-02T06:06:09;18.73;;;13.27;;
53409;SDS011;66590;50.734;4.246;2023-03-02T06:08:40;17.02;;;12.15;;
53409;SDS011;66590;50.734;4.246;2023-03-02T06:11:07;17.05;;;12.23;;
53409;SDS011;66590;50.734;4.246;2023-03-02T06:13:35;16.55;;;12.57;;
53409;SDS011;66590;50.734;4.246;2023-03-02T06:16:05;20.80;;;12.43;;
53409;SDS011;66590;50.734;4.246;2023-03-02T06:18:32;16.25;;;11.73;;
53409;SDS011;66590;50.734;4.246;2023-03-02T06:21:01;18.15;;;12.57;;
53409;SDS011;66590;50.734;4.246;2023-03-02T06:23:28;16.00;;;12.40;;
53409;SDS011;66590;50.734;4.246;2023-03-02T06:25:57;16.33;;;12.25;;
53409;SDS011;66590;50.734;4.246;2023-03-02T06:28:24;18.65;;;11.88;;
53409;SDS011;66590;50.734;4.246;2023-03-02T06:30:52;18.33;;;12.75;;
53409;SDS011;66590;50.734;4.246;2023-03-02T06:33:19;16.60;;;12.23;;
53409;SDS011;66590;50.734;4.246;2023-03-02T06:35:46;19.15;;;12.80;;
53409;SDS011;66590;50.734;4.246;2023-03-02T06:38:15;20.90;;;11.98;;
53409;SDS011;66590;50.734;4.246;2023-03-02T06:40:43;20.50;;;12.23;;
53409;SDS011;66590;50.734;4.246;2023-03-02T06:43:10;17.65;;;12.20;;
53409;SDS011;66590;50.734;4.246;2023-03-02T06:45:37;17.55;;;12.65;;
53409;SDS011;66590;50.734;4.246;2023-03-02T06:48:04;19.20;;;12.73;;
53409;SDS011;66590;50.734;4.246;2023-03-02T06:50:35;18.77;;;12.18;;
53409;SDS011;66590;50.734;4.246;2023-03-02T06:53:03;17.25;;;12.07;;
53409;SDS011;66590;50.734;4.246;2023-03-02T06:55:31;22.85;;;13.05;;
53409;SDS011;66590;50.734;4.246;2023-03-02T06:57:58;19.30;;;12.82;;
53409;SDS011;66590;50.734;4.246;2023-03-02T07:00:26;21.77;;;12.75;;
53409;SDS011;66590;50.734;4.246;2023-03-02T07:02:53;16.30;;;11.65;;
53409;SDS011;66590;50.734;4.246;2023-03-02T07:05:21;18.20;;;11.98;;
53409;SDS011;66590;50.734;4.246;2023-03-02T07:07:49;16.20;;;12.68;;
53409;SDS011;66590;50.734;4.246;2023-03-02T07:10:16;19.90;;;14.05;;
53409;SDS011;66590;50.734;4.246;2023-03-02T07:12:45;19.40;;;12.65;;
53409;SDS011;66590;50.734;4.246;2023-03-02T07:15:15;20.67;;;12.13;;
53409;SDS011;66590;50.734;4.246;2023-03-02T07:17:42;18.35;;;12.30;;
53409;SDS011;66590;50.734;4.246;2023-03-02T07:20:11;17.20;;;12.02;;
53409;SDS011;66590;50.734;4.246;2023-03-02T07:22:40;15.38;;;11.90;;
53409;SDS011;66590;50.734;4.246;2023-03-02T07:25:08;16.90;;;11.98;;
53409;SDS011;66590;50.734;4.246;2023-03-02T07:27:36;18.27;;;12.00;;
53409;SDS011;66590;50.734;4.246;2023-03-02T07:30:05;19.52;;;12.07;;
53409;SDS011;66590;50.734;4.246;2023-03-02T07:32:33;16.02;;;11.88;;
53409;SDS011;66590;50.734;4.246;2023-03-02T07:35:00;17.50;;;11.88;;
53409;SDS011;66590;50.734;4.246;2023-03-02T07:37:29;16.73;;;11.48;;
53409;SDS011;66590;50.734;4.246;2023-03-02T07:39:55;20.83;;;12.27;;
53409;SDS011;66590;50.734;4.246;2023-03-02T07:42:25;15.73;;;11.32;;
53409;SDS011;66590;50.734;4.246;2023-03-02T07:44:53;18.38;;;12.52;;
53409;SDS011;66590;50.734;4.246;2023-03-02T07:47:21;17.10;;;11.35;;
53409;SDS011;66590;50.734;4.246;2023-03-02T07:49:52;20.50;;;12.68;;
53409;SDS011;66590;50.734;4.246;2023-03-02T07:52:19;22.30;;;12.40;;
53409;SDS011;66590;50.734;4.246;2023-03-02T07:54:46;19.52;;;12.35;;
53409;SDS011;66590;50.734;4.246;2023-03-02T07:57:14;21.98;;;12.88;;
53409;SDS011;66590;50.734;4.246;2023-03-02T07:59:41;17.85;;;11.20;;
53409;SDS011;66590;50.734;4.246;2023-03-02T08:02:08;16.73;;;11.75;;
53409;SDS011;66590;50.734;4.246;2023-03-02T08:04:39;16.50;;;11.45;;
53409;SDS011;66590;50.734;4.246;2023-03-02T08:07:07;18.23;;;11.93;;
53409;SDS011;66590;50.734;4.246;2023-03-02T08:09:34;18.13;;;11.70;;
53409;SDS011;66590;50.734;4.246;2023-03-02T08:12:08;12.83;;;8.77;;
53409;SDS011;66590;50.734;4.246;2023-03-02T08:14:35;19.70;;;12.45;;
53409;SDS011;66590;50.734;4.246;2023-03-02T08:17:03;18.77;;;11.82;;
53409;SDS011;66590;50.734;4.246;2023-03-02T08:19:31;18.48;;;12.02;;
53409;SDS011;66590;50.734;4.246;2023-03-02T08:21:59;17.30;;;12.05;;
53409;SDS011;66590;50.734;4.246;2023-03-02T08:24:26;17.27;;;11.20;;
53409;SDS011;66590;50.734;4.246;2023-03-02T08:26:53;18.55;;;11.40;;
53409;SDS011;66590;50.734;4.246;2023-03-02T08:29:20;18.20;;;11.13;;
53409;SDS011;66590;50.734;4.246;2023-03-02T08:31:47;14.35;;;10.57;;
53409;SDS011;66590;50.734;4.246;2023-03-02T08:34:14;19.30;;;12.50;;
53409;SDS011;66590;50.734;4.246;2023-03-02T08:36:41;15.38;;;11.82;;
53409;SDS011;66590;50.734;4.246;2023-03-02T08:39:10;14.63;;;10.80;;
53409;SDS011;66590;50.734;4.246;2023-03-02T08:41:37;24.02;;;13.05;;
53409;SDS011;66590;50.734;4.246;2023-03-02T08:44:04;19.70;;;12.23;;
53409;SDS011;66590;50.734;4.246;2023-03-02T08:46:31;16.48;;;11.48;;
53409;SDS011;66590;50.734;4.246;2023-03-02T08:48:58;19.65;;;11.95;;
53409;SDS011;66590;50.734;4.246;2023-03-02T08:51:25;17.73;;;12.07;;
53409;SDS011;66590;50.734;4.246;2023-03-02T08:53:53;21.38;;;11.27;;
53409;SDS011;66590;50.734;4.246;2023-03-02T08:56:23;18.88;;;11.30;;
53409;SDS011;66590;50.734;4.246;2023-03-02T08:58:51;18.02;;;13.30;;
53409;SDS011;66590;50.734;4.246;2023-03-02T09:01:20;16.58;;;11.15;;
53409;SDS011;66590;50.734;4.246;2023-03-02T09:03:49;16.83;;;12.07;;
53409;SDS011;66590;50.734;4.246;2023-03-02T09:06:17;16.30;;;10.75;;
53409;SDS011;66590;50.734;4.246;2023-03-02T09:08:44;20.67;;;11.35;;
53409;SDS011;66590;50.734;4.246;2023-03-02T09:11:11;15.00;;;11.30;;
53409;SDS011;66590;50.734;4.246;2023-03-02T09:13:40;20.27;;;11.38;;
53409;SDS011;66590;50.734;4.246;2023-03-02T09:16:08;17.17;;;11.57;;
53409;SDS011;66590;50.734;4.246;2023-03-02T09:18:35;15.95;;;11.13;;
53409;SDS011;66590;50.734;4.246;2023-03-02T09:21:02;18.60;;;12.43;;
53409;SDS011;66590;50.734;4.246;2023-03-02T09:23:30;17.42;;;11.98;;
53409;SDS011;66590;50.734;4.246;2023-03-02T09:25:58;15.48;;;11.30;;
53409;SDS011;66590;50.734;4.246;2023-03-02T09:28:25;15.98;;;11.13;;
53409;SDS011;66590;50.734;4.246;2023-03-02T09:30:56;18.08;;;12.07;;
53409;SDS011;66590;50.734;4.246;2023-03-02T09:33:24;16.13;;;11.63;;
53409;SDS011;66590;50.734;4.246;2023-03-02T09:35:52;16.48;;;12.02;;
53409;SDS011;66590;50.734;4.246;2023-03-02T09:38:19;19.00;;;11.27;;
53409;SDS011;66590;50.734;4.246;2023-03-02T09:40:50;18.45;;;11.93;;
53409;SDS011;66590;50.734;4.246;2023-03-02T09:43:40;14.88;;;10.80;;
53409;SDS011;66590;50.734;4.246;2023-03-02T09:46:16;17.05;;;11.45;;
53409;SDS011;66590;50.734;4.246;2023-03-02T09:48:50;14.52;;;10.40;;
53409;SDS011;66590;50.734;4.246;2023-03-02T09:51:30;17.38;;;11.50;;
53409;SDS011;66590;50.734;4.246;2023-03-02T09:54:09;15.23;;;11.52;;
53409;SDS011;66590;50.734;4.246;2023-03-02T09:56:41;17.08;;;11.73;;
53409;SDS011;66590;50.734;4.246;2023-03-02T09:59:16;16.27;;;11.73;;
53409;SDS011;66590;50.734;4.246;2023-03-02T10:01:48;16.55;;;11.50;;
53409;SDS011;66590;50.734;4.246;2023-03-02T10:04:20;17.52;;;11.05;;
53409;SDS011;66590;50.734;4.246;2023-03-02T10:06:52;15.65;;;10.95;;
53409;SDS011;66590;50.734;4.246;2023-03-02T10:09:22;16.08;;;11.50;;
53409;SDS011;66590;50.734;4.246;2023-03-02T10:11:53;15.88;;;11.70;;
53409;SDS011;66590;50.734;4.246;2023-03-02T10:14:32;17.05;;;11.55;;
53409;SDS011;66590;50.734;4.246;2023-03-02T10:17:08;16.38;;;11.98;;
53409;SDS011;66590;50.734;4.246;2023-03-02T10:19:55;20.33;;;11.85;;
53409;SDS011;66590;50.734;4.246;2023-03-02T10:22:28;17.77;;;11.82;;
53409;SDS011;66590;50.734;4.246;2023-03-02T10:25:02;17.55;;;12.02;;
53409;SDS011;66590;50.734;4.246;2023-03-02T10:27:45;18.65;;;12.05;;
53409;SDS011;66590;50.734;4.246;2023-03-02T10:30:18;16.48;;;12.00;;
53409;SDS011;66590;50.734;4.246;2023-03-02T10:32:51;18.90;;;11.57;;
53409;SDS011;66590;50.734;4.246;2023-03-02T10:35:20;16.17;;;11.70;;
53409;SDS011;66590;50.734;4.246;2023-03-02T10:37:49;17.42;;;11.50;;
53409;SDS011;66590;50.734;4.246;2023-03-02T10:40:23;19.55;;;12.77;;
53409;SDS011;66590;50.734;4.246;2023-03-02T10:43:04;19.90;;;11.90;;
53409;SDS011;66590;50.734;4.246;2023-03-02T10:45:32;16.23;;;11.63;;
53409;SDS011;66590;50.734;4.246;2023-03-02T10:48:01;16.27;;;12.13;;
53409;SDS011;66590;50.734;4.246;2023-03-02T10:50:28;17.33;;;12.32;;
53409;SDS011;66590;50.734;4.246;2023-03-02T10:52:56;19.48;;;12.02;;
53409;SDS011;66590;50.734;4.246;2023-03-02T10:55:27;17.90;;;11.73;;
53409;SDS011;66590;50.734;4.246;2023-03-02T10:57:59;18.27;;;12.93;;
53409;SDS011;66590;50.734;4.246;2023-03-02T11:00:29;18.90;;;13.43;;
53409;SDS011;66590;50.734;4.246;2023-03-02T11:02:59;18.20;;;12.48;;
53409;SDS011;66590;50.734;4.246;2023-03-02T11:05:29;17.35;;;12.40;;
53409;SDS011;66590;50.734;4.246;2023-03-02T11:07:58;18.65;;;13.32;;
53409;SDS011;66590;50.734;4.246;2023-03-02T11:10:27;21.80;;;13.57;;
53409;SDS011;66590;50.734;4.246;2023-03-02T11:12:56;19.50;;;13.07;;
53409;SDS011;66590;50.734;4.246;2023-03-02T11:15:26;23.67;;;14.88;;
53409;SDS011;66590;50.734;4.246;2023-03-02T11:18:01;24.60;;;14.35;;
53409;SDS011;66590;50.734;4.246;2023-03-02T11:20:33;22.17;;;14.35;;
53409;SDS011;66590;50.734;4.246;2023-03-02T11:23:05;19.33;;;14.60;;
53409;SDS011;66590;50.734;4.246;2023-03-02T11:25:41;20.25;;;14.55;;
53409;SDS011;66590;50.734;4.246;2023-03-02T11:28:14;23.17;;;14.93;;
53409;SDS011;66590;50.734;4.246;2023-03-02T11:30:48;22.95;;;15.05;;
53409;SDS011;66590;50.734;4.246;2023-03-02T11:33:21;25.50;;;15.63;;
53409;SDS011;66590;50.734;4.246;2023-03-02T11:35:54;22.92;;;16.60;;
53409;SDS011;66590;50.734;4.246;2023-03-02T11:38:25;25.77;;;16.20;;
53409;SDS011;66590;50.734;4.246;2023-03-02T11:40:58;23.42;;;15.57;;
53409;SDS011;66590;50.734;4.246;2023-03-02T11:43:29;25.50;;;15.75;;
53409;SDS011;66590;50.734;4.246;2023-03-02T11:45:58;24.25;;;16.50;;
53409;SDS011;66590;50.734;4.246;2023-03-02T11:48:30;22.75;;;15.27;;
53409;SDS011;66590;50.734;4.246;2023-03-02T11:51:01;22.65;;;15.65;;
53409;SDS011;66590;50.734;4.246;2023-03-02T11:53:30;28.45;;;16.63;;
53409;SDS011;66590;50.734;4.246;2023-03-02T11:56:05;25.17;;;17.27;;
53409;SDS011;66590;50.734;4.246;2023-03-02T11:58:32;24.33;;;16.73;;
53409;SDS011;66590;50.734;4.246;2023-03-02T12:01:00;25.45;;;16.38;;
53409;SDS011;66590;50.734;4.246;2023-03-02T12:03:37;24.42;;;16.10;;
53409;SDS011;66590;50.734;4.246;2023-03-02T12:06:07;24.52;;;17.45;;
53409;SDS011;66590;50.734;4.246;2023-03-02T12:08:52;22.63;;;16.33;;
53409;SDS011;66590;50.734;4.246;2023-03-02T12:11:27;24.25;;;16.63;;
53409;SDS011;66590;50.734;4.246;2023-03-02T12:13:59;25.35;;;16.98;;
53409;SDS011;66590;50.734;4.246;2023-03-02T12:16:33;26.35;;;16.92;;
53409;SDS011;66590;50.734;4.246;2023-03-02T12:19:11;25.40;;;16.45;;
53409;SDS011;66590;50.734;4.246;2023-03-02T12:21:40;27.00;;;17.60;;
53409;SDS011;66590;50.734;4.246;2023-03-02T12:24:20;23.23;;;17.30;;
53409;SDS011;66590;50.734;4.246;2023-03-02T12:26:59;23.67;;;15.70;;
53409;SDS011;66590;50.734;4.246;2023-03-02T12:29:36;29.20;;;16.38;;
53409;SDS011;66590;50.734;4.246;2023-03-02T12:32:09;23.70;;;17.38;;
53409;SDS011;66590;50.734;4.246;2023-03-02T12:34:40;30.02;;;17.83;;
53409;SDS011;66590;50.734;4.246;2023-03-02T12:37:13;28.20;;;16.60;;
53409;SDS011;66590;50.734;4.246;2023-03-02T12:39:52;26.13;;;17.42;;
53409;SDS011;66590;50.734;4.246;2023-03-02T12:42:49;28.10;;;18.58;;
53409;SDS011;66590;50.734;4.246;2023-03-02T12:45:40;33.42;;;19.30;;
53409;SDS011;66590;50.734;4.246;2023-03-02T12:48:21;28.42;;;17.88;;
53409;SDS011;66590;50.734;4.246;2023-03-02T12:50:54;32.40;;;18.50;;
53409;SDS011;66590;50.734;4.246;2023-03-02T12:53:25;28.65;;;18.30;;
53409;SDS011;66590;50.734;4.246;2023-03-02T12:55:53;31.67;;;19.33;;
53409;SDS011;66590;50.734;4.246;2023-03-02T12:58:21;29.55;;;18.67;;
53409;SDS011;66590;50.734;4.246;2023-03-02T13:00:49;31.55;;;18.98;;
53409;SDS011;66590;50.734;4.246;2023-03-02T13:03:17;30.33;;;19.02;;
53409;SDS011;66590;50.734;4.246;2023-03-02T13:05:44;29.65;;;18.15;;
53409;SDS011;66590;50.734;4.246;2023-03-02T13:08:15;26.55;;;18.20;;
53409;SDS011;66590;50.734;4.246;2023-03-02T13:10:46;29.77;;;18.67;;
53409;SDS011;66590;50.734;4.246;2023-03-02T13:13:16;32.53;;;17.48;;
53409;SDS011;66590;50.734;4.246;2023-03-02T13:15:48;29.52;;;17.90;;
53409;SDS011;66590;50.734;4.246;2023-03-02T13:18:17;28.30;;;18.13;;
53409;SDS011;66590;50.734;4.246;2023-03-02T13:20:45;29.20;;;17.83;;
53409;SDS011;66590;50.734;4.246;2023-03-02T13:23:16;29.80;;;17.67;;
53409;SDS011;66590;50.734;4.246;2023-03-02T13:25:48;29.88;;;17.15;;
53409;SDS011;66590;50.734;4.246;2023-03-02T13:28:24;27.58;;;18.13;;
53409;SDS011;66590;50.734;4.246;2023-03-02T13:30:54;26.52;;;16.77;;
53409;SDS011;66590;50.734;4.246;2023-03-02T13:33:23;29.55;;;18.35;;
53409;SDS011;66590;50.734;4.246;2023-03-02T13:35:51;27.38;;;16.95;;
53409;SDS011;66590;50.734;4.246;2023-03-02T13:38:20;29.63;;;18.73;;
53409;SDS011;66590;50.734;4.246;2023-03-02T13:40:49;29.30;;;18.55;;
53409;SDS011;66590;50.734;4.246;2023-03-02T13:43:21;31.17;;;18.75;;
53409;SDS011;66590;50.734;4.246;2023-03-02T13:45:55;27.73;;;18.67;;
53409;SDS011;66590;50.734;4.246;2023-03-02T13:48:24;32.85;;;18.67;;
53409;SDS011;66590;50.734;4.246;2023-03-02T13:50:52;26.75;;;17.48;;
53409;SDS011;66590;50.734;4.246;2023-03-02T13:53:23;30.08;;;18.75;;
53409;SDS011;66590;50.734;4.246;2023-03-02T13:55:50;31.58;;;18.30;;
53409;SDS011;66590;50.734;4.246;2023-03-02T13:58:18;26.65;;;18.50;;
53409;SDS011;66590;50.734;4.246;2023-03-02T14:00:46;27.08;;;17.10;;
53409;SDS011;66590;50.734;4.246;2023-03-02T14:03:19;28.95;;;17.83;;
53409;SDS011;66590;50.734;4.246;2023-03-02T14:05:49;27.70;;;18.10;;
53409;SDS011;66590;50.734;4.246;2023-03-02T14:08:16;30.73;;;19.20;;
53409;SDS011;66590;50.734;4.246;2023-03-02T14:10:45;29.13;;;18.73;;
53409;SDS011;66590;50.734;4.246;2023-03-02T14:13:13;31.65;;;17.60;;
53409;SDS011;66590;50.734;4.246;2023-03-02T14:15:42;29.48;;;17.35;;
53409;SDS011;66590;50.734;4.246;2023-03-02T14:18:24;26.58;;;18.13;;
53409;SDS011;66590;50.734;4.246;2023-03-02T14:20:55;28.90;;;18.02;;
53409;SDS011;66590;50.734;4.246;2023-03-02T14:23:22;26.00;;;18.25;;
53409;SDS011;66590;50.734;4.246;2023-03-02T14:25:51;27.80;;;17.45;;
53409;SDS011;66590;50.734;4.246;2023-03-02T14:28:22;28.83;;;18.38;;
53409;SDS011;66590;50.734;4.246;2023-03-02T14:30:53;27.73;;;17.23;;
53409;SDS011;66590;50.734;4.246;2023-03-02T14:33:21;28.92;;;17.58;;
53409;SDS011;66590;50.734;4.246;2023-03-02T14:35:50;26.80;;;17.25;;
53409;SDS011;66590;50.734;4.246;2023-03-02T14:38:19;29.90;;;17.30;;
53409;SDS011;66590;50.734;4.246;2023-03-02T14:40:48;25.83;;;17.48;;